sensor_id;sensor_type;location;lat;lon;timestamp;P1;P2;P0
45312;PMS7003;68267;51.540;5.854;2023-04-16T00:06:11;6.61;8.51;7.53
45312;PMS7003;68267;51.540;5.854;2023-04-16T00:19:31;5.53;8.29;7.64
45312;PMS7003;68267;51.540;5.854;2023-04-16T00:32:50;21.85;9.38;7.75
45312;PMS7003;68267;51.540;5.854;2023-04-16T00:46:10;6.61;9.27;7.86
45312;PMS7003;68267;51.540;5.854;2023-04-16T00:59:30;11.65;10.91;8.51
45312;PMS7003;68267;51.540;5.854;2023-04-16T01:12:49;13.33;9.71;8.73
45312;PMS7003;68267;51.540;5.854;2023-04-16T01:26:09;7.69;9.71;8.4
45312;PMS7003;68267;51.540;5.854;2023-04-16T01:39:28;29.17;11.02;9.06
45312;PMS7003;68267;51.540;5.854;2023-04-16T01:52:48;19.21;12.54;9.38
45312;PMS7003;68267;51.540;5.854;2023-04-16T02:06:08;12.49;12.33;11.13
45312;PMS7003;68267;51.540;5.854;2023-04-16T02:19:27;16.93;14.4;12.11
45312;PMS7003;68267;51.540;5.854;2023-04-16T02:32:47;12.37;13.53;11.56
45312;PMS7003;68267;51.540;5.854;2023-04-16T02:46:06;11.53;13.74;11.89
45312;PMS7003;68267;51.540;5.854;2023-04-16T02:59:26;24.85;14.72;12.33
45312;PMS7003;68267;51.540;5.854;2023-04-16T03:12:46;14.53;15.6;12.76
45312;PMS7003;68267;51.540;5.854;2023-04-16T03:26:05;17.53;18.98;15.16
45312;PMS7003;68267;51.540;5.854;2023-04-16T03:39:25;17.17;18.87;14.83
45312;PMS7003;68267;51.540;5.854;2023-04-16T03:52:44;19.21;20.72;17.23
45312;PMS7003;68267;51.540;5.854;2023-04-16T04:06:04;20.17;21.26;17.12
45312;PMS7003;68267;51.540;5.854;2023-04-16T04:19:24;20.41;21.81;17.23
45312;PMS7003;68267;51.540;5.854;2023-04-16T04:32:43;20.53;21.16;17.45
45312;PMS7003;68267;51.540;5.854;2023-04-16T04:46:03;20.17;21.59;18.1
45312;PMS7003;68267;51.540;5.854;2023-04-16T04:59:23;25.33;24.64;18.43
45312;PMS7003;68267;51.540;5.854;2023-04-16T05:12:42;24.85;23.99;19.3
45312;PMS7003;68267;51.540;5.854;2023-04-16T05:26:02;26.41;25.73;19.85
45312;PMS7003;68267;51.540;5.854;2023-04-16T05:39:21;23.41;22.9;18.98
45312;PMS7003;68267;51.540;5.854;2023-04-16T05:52:41;28.09;26.5;21.05
45312;PMS7003;68267;51.540;5.854;2023-04-16T06:06:01;27.37;26.61;21.7
45312;PMS7003;68267;51.540;5.854;2023-04-16T06:19:20;29.41;27.26;22.14
45312;PMS7003;68267;51.540;5.854;2023-04-16T06:32:40;28.21;28.02;22.35
45312;PMS7003;68267;51.540;5.854;2023-04-16T06:45:59;26.29;27.15;21.92
45312;PMS7003;68267;51.540;5.854;2023-04-16T06:59:19;25.45;22.25;18.98
45312;PMS7003;68267;51.540;5.854;2023-04-16T07:12:39;21.61;22.9;19.19
45312;PMS7003;68267;51.540;5.854;2023-04-16T07:25:58;23.17;22.46;19.63
45312;PMS7003;68267;51.540;5.854;2023-04-16T07:39:18;21.25;22.57;19.52
45312;PMS7003;68267;51.540;5.854;2023-04-16T07:52:38;21.73;22.03;19.08
45312;PMS7003;68267;51.540;5.854;2023-04-16T08:05:57;21.49;22.79;20.39
45312;PMS7003;68267;51.540;5.854;2023-04-16T08:19:17;20.53;21.26;19.52
45312;PMS7003;68267;51.540;5.854;2023-04-16T08:32:36;20.29;21.7;19.85
45312;PMS7003;68267;51.540;5.854;2023-04-16T08:45:56;20.53;21.92;19.85
45312;PMS7003;68267;51.540;5.854;2023-04-16T08:59:16;19.45;20.94;18.65
45312;PMS7003;68267;51.540;5.854;2023-04-16T09:12:35;18.49;20.07;18.76
45312;PMS7003;68267;51.540;5.854;2023-04-16T09:25:55;18.25;19.85;18.76
45312;PMS7003;68267;51.540;5.854;2023-04-16T09:39:15;19.45;19.85;18.32
45312;PMS7003;68267;51.540;5.854;2023-04-16T09:52:34;18.61;19.63;18.43
45312;PMS7003;68267;51.540;5.854;2023-04-16T10:05:54;18.49;19.52;18.1
45312;PMS7003;68267;51.540;5.854;2023-04-16T10:19:14;17.41;19.08;17.78
45312;PMS7003;68267;51.540;5.854;2023-04-16T10:32:33;18.37;19.96;18.21
45312;PMS7003;68267;51.540;5.854;2023-04-16T10:45:53;17.65;19.3;17.99
45312;PMS7003;68267;51.540;5.854;2023-04-16T10:59:12;16.93;18.65;17.34
45312;PMS7003;68267;51.540;5.854;2023-04-16T11:12:32;16.69;18.43;17.34
45312;PMS7003;68267;51.540;5.854;2023-04-16T11:25:52;17.89;19.52;17.67
45312;PMS7003;68267;51.540;5.854;2023-04-16T11:39:11;16.93;18.65;17.56
45312;PMS7003;68267;51.540;5.854;2023-04-16T11:52:31;22.57;23.23;21.59
45312;PMS7003;68267;51.540;5.854;2023-04-16T12:05:50;23.41;23.66;22.03
45312;PMS7003;68267;51.540;5.854;2023-04-16T12:19:10;22.69;22.9;20.94
45312;PMS7003;68267;51.540;5.854;2023-04-16T12:32:30;22.33;22.9;20.83
45312;PMS7003;68267;51.540;5.854;2023-04-16T12:45:49;21.61;22.9;20.72
45312;PMS7003;68267;51.540;5.854;2023-04-16T12:59:09;22.21;23.12;21.26
45312;PMS7003;68267;51.540;5.854;2023-04-16T13:12:29;20.53;21.92;20.39
45312;PMS7003;68267;51.540;5.854;2023-04-16T13:25:48;18.49;20.07;18.65
45312;PMS7003;68267;51.540;5.854;2023-04-16T13:39:08;18.73;19.85;18.21
45312;PMS7003;68267;51.540;5.854;2023-04-16T13:52:28;17.65;19.3;17.67
45312;PMS7003;68267;51.540;5.854;2023-04-16T14:05:47;16.69;18.43;16.8
45312;PMS7003;68267;51.540;5.854;2023-04-16T14:19:07;17.41;19.08;17.89
45312;PMS7003;68267;51.540;5.854;2023-04-16T14:32:26;18.49;20.07;18.1
45312;PMS7003;68267;51.540;5.854;2023-04-16T14:45:46;19.93;19.52;17.99
45312;PMS7003;68267;51.540;5.854;2023-04-16T14:59:06;17.65;19.3;18.32
45312;PMS7003;68267;51.540;5.854;2023-04-16T15:12:25;17.53;19.19;17.99
45312;PMS7003;68267;51.540;5.854;2023-04-16T15:25:45;16.21;17.99;17.34
45312;PMS7003;68267;51.540;5.854;2023-04-16T15:39:04;18.13;19.74;18.21
45312;PMS7003;68267;51.540;5.854;2023-04-16T15:52:24;18.13;19.74;18.43
45312;PMS7003;68267;51.540;5.854;2023-04-16T16:05:44;18.13;19.08;17.89
45312;PMS7003;68267;51.540;5.854;2023-04-16T16:19:03;18.37;19.08;17.99
45312;PMS7003;68267;51.540;5.854;2023-04-16T16:32:23;16.57;18.32;17.45
45312;PMS7003;68267;51.540;5.854;2023-04-16T16:45:42;15.61;17.45;16.8
45312;PMS7003;68267;51.540;5.854;2023-04-16T16:59:02;17.65;19.3;17.67
45312;PMS7003;68267;51.540;5.854;2023-04-16T17:12:22;20.05;20.39;19.41
45312;PMS7003;68267;51.540;5.854;2023-04-16T17:25:41;19.09;19.96;18.43
45312;PMS7003;68267;51.540;5.854;2023-04-16T17:39:01;16.69;18.43;17.56
45312;PMS7003;68267;51.540;5.854;2023-04-16T17:52:20;16.57;18.32;17.78
45312;PMS7003;68267;51.540;5.854;2023-04-16T18:05:40;18.73;19.19;17.99
45312;PMS7003;68267;51.540;5.854;2023-04-16T18:19:00;17.77;19.41;17.99
45312;PMS7003;68267;51.540;5.854;2023-04-16T18:32:19;19.57;20.39;19.74
45312;PMS7003;68267;51.540;5.854;2023-04-16T18:45:39;18.61;20.17;19.3
45312;PMS7003;68267;51.540;5.854;2023-04-16T18:58:59;20.05;21.48;20.07
45312;PMS7003;68267;51.540;5.854;2023-04-16T19:12:18;21.37;22.25;20.72
45312;PMS7003;68267;51.540;5.854;2023-04-16T19:25:38;22.69;23.44;21.7
45312;PMS7003;68267;51.540;5.854;2023-04-16T19:38:57;21.13;22.46;20.72
45312;PMS7003;68267;51.540;5.854;2023-04-16T19:52:17;22.45;22.9;21.59
45312;PMS7003;68267;51.540;5.854;2023-04-16T20:05:37;22.45;23.66;21.81
45312;PMS7003;68267;51.540;5.854;2023-04-16T20:18:56;23.89;24.97;22.57
45312;PMS7003;68267;51.540;5.854;2023-04-16T20:32:16;25.33;25.62;23.99
45312;PMS7003;68267;51.540;5.854;2023-04-16T20:45:36;25.21;26.17;23.77
45312;PMS7003;68267;51.540;5.854;2023-04-16T20:58:55;24.73;25.3;23.44
45312;PMS7003;68267;51.540;5.854;2023-04-16T21:12:15;24.85;25.84;23.88
45312;PMS7003;68267;51.540;5.854;2023-04-16T21:25:34;27.61;27.48;24.97
45312;PMS7003;68267;51.540;5.854;2023-04-16T21:38:54;27.37;28.13;25.19
45312;PMS7003;68267;51.540;5.854;2023-04-16T21:52:14;27.37;27.7;25.3
45312;PMS7003;68267;51.540;5.854;2023-04-16T22:05:33;27.73;27.8;25.62
45312;PMS7003;68267;51.540;5.854;2023-04-16T22:18:53;27.61;28.35;25.95
45312;PMS7003;68267;51.540;5.854;2023-04-16T22:32:13;27.13;27.91;25.52
45312;PMS7003;68267;51.540;5.854;2023-04-16T22:45:32;27.13;27.91;26.17
45312;PMS7003;68267;51.540;5.854;2023-04-16T22:58:52;28.45;29.11;26.82
45312;PMS7003;68267;51.540;5.854;2023-04-16T23:12:11;28.33;29.0;26.5
45312;PMS7003;68267;51.540;5.854;2023-04-16T23:25:31;28.69;29.11;27.04
45312;PMS7003;68267;51.540;5.854;2023-04-16T23:38:51;28.93;29.55;26.82
45312;PMS7003;68267;51.540;5.854;2023-04-16T23:52:10;27.37;28.13;25.73
